Yankton, SD (57078)

15:16 CST le 17 janvier 2017 (GMT -0600)
Santa Rosa Circle | | Change Station

Alt. 1217 ft 42.90 °N, 97.38 °W | Updated 7 seconds ago

Clear
Ciel dégagé
37.0 ° F
Paraît 37 ° F
N
0.4
Vent Variable Vent de SSO
Gusts 2.5 mph

Aujourd'hui
Haut(e) -- | Bas -- ° F
--% Risque de précip.
Hier
Haut(e) -- | Bas -- ° F
Precip. -- pouce
Pression 30.02 pouce
Visibilité 10.0 Miles terrestres
Nuages Ciel dégagé
Refroidissement éolien 37 ° F
Point de rosée 29 ° F
Humidité 72%
Précipitations 0.05 pouce
Profondeur de la couche neigeuse Non disponible.
7:56 AM 5:23 PM
Lune gibbeuse décroissante, 69% visible
METAR KYKN 172115Z AUTO 00000KT 10SM CLR 01/M02 A3002 RMK AO1
Pression 30.02 pouce
Visibilité 10.0 Miles terrestres
Nuages Ciel dégagé
Refroidissement éolien 37 ° F
Point de rosée 29 ° F
Humidité 72%
Précipitations 0.05 pouce
Profondeur de la couche neigeuse Non disponible.
7:56 AM 5:23 PM
Lune gibbeuse décroissante, 69% visible
METAR KYKN 172115Z AUTO 00000KT 10SM CLR 01/M02 A3002 RMK AO1

Get Your Daily Forecast Email!

Thanks for signing up!

Be on the lookout for a verification email in your inbox.

You'll start receiving the daily forecast at 8 AM.

×

10-Day Weather Forecast

Almanac

Astronomie

Jan. 17, 2017 Lever Coucher
Temps réel
Crépuscule civil
Crépuscule nautique
Crépuscule astronomique
Lune
Durée de lumière visible
Longueur du jour
Tomorrow will be .
, % of the Moon is Illuminated

Extrêmes aujourd'hui

State Highs State Lows

Community

WunderPhotos

Upload Photos

1,962,540 Photos téléchargées !

WunderBlog® & News

Nearby

Qualité de l'air

  Qualité de l'air Indice de la qualité de l'air Polluant
Not available.

Épaisseur de neige

Station Depth Altitude

Activité sismique

Ville Distance Mag. Time & Date
Minimum magnitude displayed is 2.5.

Températures des eaux côtières

Lieu Température

Stations

Stations météo à proximité

Emplacement de la station Température Refroidissement éolien Point de rosée Humidité Vent Precip. Alt. Mise à jour Type
                   

Watches & Warnings

There are currently no watches in effect.